Time;durP1;ratioP1;P1;durP2;ratioP2;P2;SDS_P1;SDS_P2;PMS_P1;PMS_P2;Temp;Humidity;BMP_temperature;BMP_pressure;BME280_temperature;BME280_humidity;BME280_pressure;Samples;Min_cycle;Max_cycle;Signal;HPM_P1;HPM_P2
2023/12/18 00:00:51;;;;;;;21.80;5.97;;;;;;;;;;5012793;28;20022;-79
2023/12/18 00:03:16;;;;;;;20.93;6.00;;;;;;;;;;5011901;28;20116;-79
2023/12/18 00:05:41;;;;;;;22.83;6.57;;;;;;;;;;5011363;28;20276;-79
2023/12/18 00:08:08;;;;;;;18.60;6.90;;;;;;;;;;5013241;28;20296;-79
2023/12/18 00:10:33;;;;;;;26.13;6.63;;;;;;;;;;5013205;28;20076;-79
2023/12/18 00:12:59;;;;;;;21.75;6.60;;;;;;;;;;5012642;28;20113;-79
2023/12/18 00:15:26;;;;;;;30.58;6.90;;;;;;;;;;5013133;28;20195;-79
2023/12/18 00:17:51;;;;;;;30.42;7.20;;;;;;;;;;5012742;28;20159;-79
2023/12/18 00:20:17;;;;;;;30.10;7.45;;;;;;;;;;5011676;28;20478;-79
2023/12/18 00:22:42;;;;;;;23.02;6.90;;;;;;;;;;5012613;28;20025;-78
2023/12/18 00:25:07;;;;;;;37.40;8.37;;;;;;;;;;5012938;28;20061;-78
2023/12/18 00:27:32;;;;;;;29.80;7.80;;;;;;;;;;5012616;28;20308;-80
2023/12/18 00:29:58;;;;;;;25.05;7.55;;;;;;;;;;5012475;28;20065;-80
2023/12/18 00:32:23;;;;;;;21.23;7.72;;;;;;;;;;5013116;28;20489;-78
2023/12/18 00:34:48;;;;;;;20.92;6.75;;;;;;;;;;5012063;28;20513;-79
2023/12/18 00:37:13;;;;;;;21.43;7.07;;;;;;;;;;5012529;28;20449;-79
2023/12/18 00:39:39;;;;;;;26.50;7.40;;;;;;;;;;5012207;28;20678;-79
2023/12/18 00:42:04;;;;;;;31.55;8.38;;;;;;;;;;5012560;28;20025;-78
2023/12/18 00:44:29;;;;;;;25.30;8.10;;;;;;;;;;5012385;28;20034;-79
2023/12/18 00:46:55;;;;;;;29.92;7.38;;;;;;;;;;5011651;28;20442;-79
2023/12/18 00:49:20;;;;;;;29.52;7.50;;;;;;;;;;5012375;28;20038;-79
2023/12/18 00:51:45;;;;;;;23.00;7.72;;;;;;;;;;5010510;28;20025;-80
2023/12/18 00:54:10;;;;;;;25.20;8.20;;;;;;;;;;5012126;28;20030;-77
2023/12/18 00:56:36;;;;;;;25.70;7.43;;;;;;;;;;5011893;28;20034;-79
2023/12/18 00:59:02;;;;;;;19.63;7.07;;;;;;;;;;5011566;28;20268;-79
2023/12/18 01:01:28;;;;;;;28.80;8.18;;;;;;;;;;5011867;28;20029;-79
2023/12/18 01:03:53;;;;;;;22.80;7.97;;;;;;;;;;5010322;28;20030;-80
2023/12/18 01:06:18;;;;;;;26.90;8.07;;;;;;;;;;5010413;28;20037;-80
2023/12/18 01:08:43;;;;;;;24.60;7.82;;;;;;;;;;5011330;28;20026;-78
2023/12/18 01:11:08;;;;;;;34.40;8.10;;;;;;;;;;5011772;28;20022;-79
2023/12/18 01:13:34;;;;;;;25.08;7.82;;;;;;;;;;5011632;28;20435;-79
2023/12/18 01:15:59;;;;;;;22.95;7.43;;;;;;;;;;5009979;28;20117;-79
2023/12/18 01:18:25;;;;;;;29.85;7.75;;;;;;;;;;5012022;28;20051;-79
2023/12/18 01:20:50;;;;;;;25.67;7.90;;;;;;;;;;5011396;28;20014;-79
2023/12/18 01:23:16;;;;;;;27.40;8.18;;;;;;;;;;5011800;28;20072;-79
2023/12/18 01:25:41;;;;;;;24.33;8.27;;;;;;;;;;5011813;28;20065;-79
2023/12/18 01:28:06;;;;;;;25.27;7.97;;;;;;;;;;5011263;28;20022;-79
2023/12/18 01:30:31;;;;;;;35.85;9.02;;;;;;;;;;5010322;28;20045;-79
2023/12/18 01:32:56;;;;;;;27.20;7.77;;;;;;;;;;5011003;28;20041;-80
2023/12/18 01:35:22;;;;;;;25.35;7.80;;;;;;;;;;5009614;28;20362;-79
2023/12/18 01:37:47;;;;;;;29.70;7.60;;;;;;;;;;5011339;28;20049;-79
2023/12/18 01:40:12;;;;;;;30.10;8.70;;;;;;;;;;5011364;28;20354;-79
2023/12/18 01:42:39;;;;;;;29.48;8.50;;;;;;;;;;5009857;28;20022;-78
2023/12/18 01:45:04;;;;;;;20.23;7.82;;;;;;;;;;5010900;28;20014;-79
2023/12/18 01:47:30;;;;;;;28.17;9.73;;;;;;;;;;5011012;28;20532;-79
2023/12/18 01:49:55;;;;;;;31.15;9.90;;;;;;;;;;5009366;28;20076;-78
2023/12/18 01:52:20;;;;;;;24.60;10.50;;;;;;;;;;5011208;28;20022;-78
2023/12/18 01:54:46;;;;;;;25.08;10.55;;;;;;;;;;5011290;28;20323;-79
2023/12/18 01:57:12;;;;;;;25.77;9.82;;;;;;;;;;5010485;28;20129;-78
2023/12/18 01:59:37;;;;;;;24.95;10.57;;;;;;;;;;5009786;28;20034;-78
2023/12/18 02:02:03;;;;;;;22.58;10.15;;;;;;;;;;5010284;28;20057;-79
2023/12/18 02:04:28;;;;;;;22.70;10.27;;;;;;;;;;5011056;28;20018;-78
2023/12/18 02:06:54;;;;;;;33.35;9.73;;;;;;;;;;5010393;28;20034;-78
2023/12/18 02:09:19;;;;;;;24.45;10.55;;;;;;;;;;5008636;28;20029;-78
2023/12/18 02:11:45;;;;;;;27.38;10.73;;;;;;;;;;5010950;28;20038;-79
2023/12/18 02:14:11;;;;;;;27.40;10.48;;;;;;;;;;5010142;28;20037;-79
2023/12/18 02:16:37;;;;;;;23.20;10.07;;;;;;;;;;5010710;28;20030;-79
2023/12/18 02:19:05;;;;;;;22.88;10.25;;;;;;;;;;5010411;28;20018;-79
2023/12/18 02:21:30;;;;;;;19.88;10.38;;;;;;;;;;5010383;28;20417;-78
2023/12/18 02:23:55;;;;;;;27.42;9.90;;;;;;;;;;5010069;28;20083;-78
2023/12/18 02:26:21;;;;;;;24.25;10.00;;;;;;;;;;5010692;28;20375;-79
2023/12/18 02:28:46;;;;;;;34.22;10.18;;;;;;;;;;5009199;28;20026;-79
2023/12/18 02:31:14;;;;;;;23.30;10.68;;;;;;;;;;5010248;28;20411;-78
2023/12/18 02:33:40;;;;;;;27.27;10.85;;;;;;;;;;5009245;28;20125;-79
2023/12/18 02:36:06;;;;;;;24.80;10.38;;;;;;;;;;5010007;28;20046;-78
2023/12/18 02:38:31;;;;;;;25.15;9.98;;;;;;;;;;5010570;28;20021;-80
2023/12/18 02:40:56;;;;;;;20.65;9.07;;;;;;;;;;5008874;28;20030;-79
2023/12/18 02:43:22;;;;;;;25.20;10.55;;;;;;;;;;5010096;28;20030;-79
2023/12/18 02:45:47;;;;;;;21.65;10.73;;;;;;;;;;5009236;28;20025;-79
2023/12/18 02:48:12;;;;;;;25.40;10.05;;;;;;;;;;5010109;28;20096;-79
2023/12/18 02:50:38;;;;;;;27.55;10.40;;;;;;;;;;5010460;28;20026;-78
2023/12/18 02:53:03;;;;;;;31.60;10.82;;;;;;;;;;5009940;28;20033;-79
2023/12/18 02:55:28;;;;;;;29.63;11.00;;;;;;;;;;5010173;28;20026;-79
2023/12/18 02:57:54;;;;;;;22.20;9.70;;;;;;;;;;5010280;28;20026;-78
2023/12/18 03:00:19;;;;;;;28.17;10.35;;;;;;;;;;5009658;28;20257;-78
2023/12/18 03:02:44;;;;;;;24.08;9.90;;;;;;;;;;5010002;28;20022;-80
2023/12/18 03:05:09;;;;;;;26.55;10.38;;;;;;;;;;5009827;28;20030;-80
2023/12/18 03:07:35;;;;;;;24.48;10.40;;;;;;;;;;5010338;28;20026;-80
2023/12/18 03:10:00;;;;;;;24.30;9.23;;;;;;;;;;5009567;28;20025;-79
2023/12/18 03:12:25;;;;;;;20.48;9.50;;;;;;;;;;5010756;28;20029;-79
2023/12/18 03:14:50;;;;;;;25.70;9.95;;;;;;;;;;5012403;28;20042;-72
2023/12/18 03:17:16;;;;;;;31.10;9.75;;;;;;;;;;5013359;28;20196;-73
2023/12/18 03:19:41;;;;;;;18.02;9.73;;;;;;;;;;5013196;28;20061;-73
2023/12/18 03:22:06;;;;;;;27.77;10.57;;;;;;;;;;5013306;28;20053;-72
2023/12/18 03:24:32;;;;;;;24.60;10.03;;;;;;;;;;5013433;28;20022;-71
2023/12/18 03:26:57;;;;;;;22.75;10.02;;;;;;;;;;5012956;28;20269;-72
2023/12/18 03:29:22;;;;;;;26.23;10.02;;;;;;;;;;5012976;28;20053;-72
2023/12/18 03:31:47;;;;;;;22.33;9.53;;;;;;;;;;5013236;28;20056;-72
2023/12/18 03:34:13;;;;;;;23.10;10.80;;;;;;;;;;5012897;28;20297;-72
2023/12/18 03:36:38;;;;;;;28.08;11.32;;;;;;;;;;5013150;28;20299;-72
2023/12/18 03:39:03;;;;;;;23.40;10.10;;;;;;;;;;5011864;28;20022;-76
2023/12/18 03:41:28;;;;;;;24.38;10.70;;;;;;;;;;5013418;28;20026;-72
2023/12/18 03:43:54;;;;;;;32.40;11.13;;;;;;;;;;5013623;28;20033;-72
2023/12/18 03:46:19;;;;;;;27.63;10.07;;;;;;;;;;5013753;28;20033;-72
2023/12/18 03:48:44;;;;;;;22.92;10.93;;;;;;;;;;5011779;28;20018;-72
2023/12/18 03:51:10;;;;;;;30.17;11.33;;;;;;;;;;5012760;28;20489;-72
2023/12/18 03:53:35;;;;;;;26.67;10.80;;;;;;;;;;5011746;28;20327;-72
2023/12/18 03:56:00;;;;;;;22.67;10.93;;;;;;;;;;5015552;28;20038;-72
2023/12/18 03:58:25;;;;;;;22.95;10.35;;;;;;;;;;5017024;28;20018;-73
2023/12/18 04:00:51;;;;;;;26.53;10.73;;;;;;;;;;5017061;28;20017;-72
2023/12/18 04:03:16;;;;;;;29.80;10.88;;;;;;;;;;5016331;28;20359;-72
2023/12/18 04:05:41;;;;;;;25.33;10.55;;;;;;;;;;5016411;28;20018;-71
2023/12/18 04:08:06;;;;;;;26.93;10.50;;;;;;;;;;5016239;28;20109;-72
2023/12/18 04:10:31;;;;;;;32.58;10.35;;;;;;;;;;5015878;28;20265;-72
2023/12/18 04:12:57;;;;;;;27.80;10.07;;;;;;;;;;5016380;28;20061;-72
2023/12/18 04:15:22;;;;;;;35.27;10.97;;;;;;;;;;5016056;28;20371;-71
2023/12/18 04:17:47;;;;;;;27.92;10.15;;;;;;;;;;5016127;28;20344;-71
2023/12/18 04:20:12;;;;;;;20.08;10.35;;;;;;;;;;5015976;28;20030;-71
2023/12/18 04:22:38;;;;;;;36.10;11.73;;;;;;;;;;5016034;28;20026;-71
2023/12/18 04:25:03;;;;;;;23.00;10.32;;;;;;;;;;5015260;28;20026;-71
2023/12/18 04:27:28;;;;;;;25.50;10.15;;;;;;;;;;5014658;28;20033;-71
2023/12/18 04:29:53;;;;;;;30.42;10.32;;;;;;;;;;5015899;28;20029;-71
2023/12/18 04:32:19;;;;;;;30.50;11.38;;;;;;;;;;5015402;28;20033;-71
2023/12/18 04:34:44;;;;;;;27.85;10.27;;;;;;;;;;5015907;28;20109;-73
2023/12/18 04:37:09;;;;;;;25.90;10.70;;;;;;;;;;5015878;28;20054;-71
2023/12/18 04:39:35;;;;;;;26.30;10.82;;;;;;;;;;5015490;28;20028;-71
2023/12/18 04:42:00;;;;;;;35.08;10.77;;;;;;;;;;5015419;28;20033;-72
2023/12/18 04:44:26;;;;;;;25.33;10.90;;;;;;;;;;5015611;28;20018;-72
2023/12/18 04:46:51;;;;;;;26.27;11.30;;;;;;;;;;5015534;28;20034;-72
2023/12/18 04:49:17;;;;;;;23.52;10.43;;;;;;;;;;5015851;28;20419;-72
2023/12/18 04:51:42;;;;;;;28.25;11.05;;;;;;;;;;5015375;28;20030;-72
2023/12/18 04:54:07;;;;;;;33.50;11.38;;;;;;;;;;4997891;28;20026;-71
2023/12/18 04:56:32;;;;;;;33.08;11.18;;;;;;;;;;5015253;28;20033;-72
2023/12/18 04:58:58;;;;;;;33.83;11.13;;;;;;;;;;5015899;28;20470;-72
2023/12/18 05:01:23;;;;;;;21.10;10.37;;;;;;;;;;5014039;28;20273;-72
2023/12/18 05:03:48;;;;;;;22.13;10.38;;;;;;;;;;5015042;28;20252;-72
2023/12/18 05:06:43;;;;;;;24.58;10.20;;;;;;;;;;5013362;28;20041;-72
2023/12/18 05:09:08;;;;;;;28.95;10.55;;;;;;;;;;5002197;28;20030;-72
2023/12/18 05:11:33;;;;;;;24.90;11.35;;;;;;;;;;5015693;28;20057;-72
2023/12/18 05:13:58;;;;;;;30.42;10.95;;;;;;;;;;5013603;28;20057;-71
2023/12/18 05:16:24;;;;;;;25.30;10.85;;;;;;;;;;5014925;28;20041;-72
2023/12/18 05:18:49;;;;;;;27.52;10.95;;;;;;;;;;5014727;28;20449;-72
2023/12/18 05:21:14;;;;;;;27.80;10.83;;;;;;;;;;5014982;28;20029;-72
2023/12/18 05:23:40;;;;;;;32.03;11.27;;;;;;;;;;5014826;28;20265;-73
2023/12/18 05:26:05;;;;;;;29.80;12.00;;;;;;;;;;5013675;28;20155;-71
2023/12/18 05:28:30;;;;;;;23.02;11.30;;;;;;;;;;5015097;28;20034;-71
2023/12/18 05:30:56;;;;;;;33.97;10.65;;;;;;;;;;5014585;28;20037;-72
2023/12/18 05:33:21;;;;;;;26.77;10.45;;;;;;;;;;5013415;28;20125;-72
2023/12/18 05:35:46;;;;;;;25.33;10.75;;;;;;;;;;4996984;28;20504;-72
2023/12/18 05:38:12;;;;;;;23.98;10.77;;;;;;;;;;5014788;28;20022;-72
2023/12/18 05:40:37;;;;;;;35.53;11.95;;;;;;;;;;5014502;28;20358;-72
2023/12/18 05:43:04;;;;;;;33.40;10.73;;;;;;;;;;5014586;28;20061;-71
2023/12/18 05:45:30;;;;;;;26.15;11.00;;;;;;;;;;5014399;28;20036;-71
2023/12/18 05:47:55;;;;;;;35.45;11.02;;;;;;;;;;5013282;28;20018;-71
2023/12/18 05:50:21;;;;;;;28.70;11.25;;;;;;;;;;5014404;28;20033;-75
2023/12/18 05:52:46;;;;;;;25.95;10.70;;;;;;;;;;5014906;28;20010;-71
2023/12/18 05:55:11;;;;;;;28.33;10.82;;;;;;;;;;5014011;28;20356;-72
2023/12/18 05:57:37;;;;;;;30.05;11.05;;;;;;;;;;5013249;28;20370;-71
2023/12/18 06:00:03;;;;;;;30.42;11.30;;;;;;;;;;5013960;28;20017;-72
2023/12/18 06:02:29;;;;;;;26.98;11.45;;;;;;;;;;5013598;28;20025;-71
2023/12/18 06:04:54;;;;;;;21.20;11.27;;;;;;;;;;5013910;28;20080;-72
2023/12/18 06:07:19;;;;;;;29.13;11.07;;;;;;;;;;5014221;28;20038;-72
2023/12/18 06:09:44;;;;;;;35.05;12.88;;;;;;;;;;5012818;28;20030;-72
2023/12/18 06:12:10;;;;;;;26.80;12.50;;;;;;;;;;5013826;28;20022;-71
2023/12/18 06:14:36;;;;;;;26.77;12.45;;;;;;;;;;5013972;28;20257;-71
2023/12/18 06:17:01;;;;;;;29.08;13.27;;;;;;;;;;5013055;28;20045;-72
2023/12/18 06:19:26;;;;;;;26.53;13.37;;;;;;;;;;5013930;28;20105;-73
2023/12/18 06:21:51;;;;;;;27.17;13.50;;;;;;;;;;5012773;28;20261;-72
2023/12/18 06:24:17;;;;;;;27.65;13.60;;;;;;;;;;5013550;28;20030;-72
2023/12/18 06:26:42;;;;;;;34.03;13.77;;;;;;;;;;5013811;28;20029;-72
2023/12/18 06:29:07;;;;;;;29.87;14.63;;;;;;;;;;5012570;28;20462;-72
2023/12/18 06:31:33;;;;;;;38.27;13.87;;;;;;;;;;5012555;28;20391;-72
2023/12/18 06:33:58;;;;;;;38.25;14.20;;;;;;;;;;5013544;28;20275;-72
2023/12/18 06:36:23;;;;;;;27.93;14.87;;;;;;;;;;5013375;28;20468;-72
2023/12/18 06:38:49;;;;;;;28.38;15.48;;;;;;;;;;5014109;28;20292;-71
2023/12/18 06:41:15;;;;;;;30.73;14.38;;;;;;;;;;5013763;28;20359;-71
2023/12/18 06:43:40;;;;;;;30.17;15.02;;;;;;;;;;5013826;28;20419;-72
2023/12/18 06:46:06;;;;;;;29.98;14.95;;;;;;;;;;5012657;28;20477;-72
2023/12/18 06:48:31;;;;;;;33.63;15.45;;;;;;;;;;5013555;28;20465;-72
2023/12/18 06:50:57;;;;;;;27.27;14.55;;;;;;;;;;5012297;28;20053;-72
2023/12/18 06:53:22;;;;;;;28.53;15.17;;;;;;;;;;5014110;28;20026;-73
2023/12/18 06:55:47;;;;;;;30.33;15.40;;;;;;;;;;5012268;28;20339;-72
2023/12/18 06:58:12;;;;;;;29.13;14.77;;;;;;;;;;5013302;28;20764;-72
2023/12/18 07:00:38;;;;;;;32.50;14.73;;;;;;;;;;5014087;28;20026;-72
2023/12/18 07:03:03;;;;;;;32.53;15.27;;;;;;;;;;5011831;28;20075;-71
2023/12/18 07:05:29;;;;;;;33.15;14.50;;;;;;;;;;5012981;28;20370;-72
2023/12/18 07:07:54;;;;;;;27.35;14.70;;;;;;;;;;5013124;28;20382;-72
2023/12/18 07:10:19;;;;;;;29.73;14.20;;;;;;;;;;5013272;28;20454;-72
2023/12/18 07:12:45;;;;;;;34.30;13.75;;;;;;;;;;5013420;28;20029;-71
2023/12/18 07:15:10;;;;;;;29.50;14.30;;;;;;;;;;5012099;28;20028;-73
2023/12/18 07:17:36;;;;;;;29.30;13.88;;;;;;;;;;5012982;28;20462;-72
2023/12/18 07:20:01;;;;;;;34.37;16.03;;;;;;;;;;5013249;28;20026;-72
2023/12/18 07:22:26;;;;;;;28.60;14.10;;;;;;;;;;5013771;28;20269;-72
2023/12/18 07:24:52;;;;;;;32.83;14.38;;;;;;;;;;5012407;28;20074;-72
2023/12/18 07:27:17;;;;;;;35.63;15.48;;;;;;;;;;5013674;28;20434;-71
2023/12/18 07:29:42;;;;;;;29.17;15.40;;;;;;;;;;5015498;28;20022;-72
2023/12/18 07:32:08;;;;;;;30.73;15.15;;;;;;;;;;5016649;28;20253;-72
2023/12/18 07:34:33;;;;;;;36.28;14.77;;;;;;;;;;5016998;28;20070;-71
2023/12/18 07:36:58;;;;;;;32.20;14.20;;;;;;;;;;5016602;28;20136;-72
2023/12/18 07:39:23;;;;;;;41.78;15.25;;;;;;;;;;5016502;28;20400;-71
2023/12/18 07:41:48;;;;;;;31.23;15.48;;;;;;;;;;5016373;28;20046;-72
2023/12/18 07:44:14;;;;;;;27.98;13.73;;;;;;;;;;5016542;28;20386;-72
2023/12/18 07:46:39;;;;;;;30.15;14.82;;;;;;;;;;5016059;28;20040;-72
2023/12/18 07:49:05;;;;;;;31.27;14.95;;;;;;;;;;5015370;28;20022;-72
2023/12/18 07:51:30;;;;;;;29.63;15.48;;;;;;;;;;5016775;28;20032;-70
2023/12/18 07:53:55;;;;;;;29.85;16.27;;;;;;;;;;5016302;28;20104;-72
2023/12/18 07:56:21;;;;;;;32.33;15.60;;;;;;;;;;5016650;28;20113;-72
2023/12/18 07:58:47;;;;;;;26.17;15.38;;;;;;;;;;5016745;28;20265;-72
2023/12/18 08:01:13;;;;;;;29.65;14.73;;;;;;;;;;5015457;28;20025;-73
2023/12/18 08:03:39;;;;;;;26.50;15.27;;;;;;;;;;5016205;28;20018;-73
2023/12/18 08:06:04;;;;;;;26.30;15.13;;;;;;;;;;5016363;28;20109;-73
2023/12/18 08:08:29;;;;;;;29.95;15.10;;;;;;;;;;5016297;28;20268;-73
2023/12/18 08:10:54;;;;;;;32.75;15.15;;;;;;;;;;4998704;28;20288;-73
2023/12/18 08:13:20;;;;;;;28.17;15.13;;;;;;;;;;5015274;28;20037;-73
2023/12/18 08:15:45;;;;;;;30.52;17.02;;;;;;;;;;5016042;28;20300;-73
2023/12/18 08:18:11;;;;;;;34.95;16.38;;;;;;;;;;5015973;28;20018;-73
2023/12/18 08:20:36;;;;;;;29.67;15.48;;;;;;;;;;5015175;28;20018;-74
2023/12/18 08:23:02;;;;;;;30.30;15.93;;;;;;;;;;5015777;28;20026;-72
2023/12/18 08:25:27;;;;;;;31.83;15.98;;;;;;;;;;5016005;28;20057;-71
2023/12/18 08:27:52;;;;;;;43.27;15.13;;;;;;;;;;5015991;28;20026;-72
2023/12/18 08:30:17;;;;;;;30.47;15.40;;;;;;;;;;5016417;28;20261;-72
2023/12/18 08:32:42;;;;;;;31.02;14.50;;;;;;;;;;5014300;28;20272;-74
2023/12/18 08:35:08;;;;;;;29.05;15.02;;;;;;;;;;5016320;28;20034;-72
2023/12/18 08:37:33;;;;;;;23.83;14.23;;;;;;;;;;5015409;28;20486;-73
2023/12/18 08:39:59;;;;;;;37.60;15.38;;;;;;;;;;5015308;28;20018;-72
2023/12/18 08:42:24;;;;;;;26.30;14.48;;;;;;;;;;5015004;28;20087;-73
2023/12/18 08:44:49;;;;;;;33.42;13.73;;;;;;;;;;5015239;28;20025;-72
2023/12/18 08:47:15;;;;;;;25.85;14.07;;;;;;;;;;5014884;28;20475;-73
2023/12/18 08:49:40;;;;;;;27.40;14.25;;;;;;;;;;5015240;28;20053;-72
2023/12/18 08:52:05;;;;;;;26.30;14.13;;;;;;;;;;5015570;28;20026;-73
2023/12/18 08:54:30;;;;;;;33.00;15.20;;;;;;;;;;5015017;28;20029;-73
2023/12/18 08:56:55;;;;;;;36.03;15.10;;;;;;;;;;5015320;28;20378;-72
2023/12/18 08:59:21;;;;;;;27.70;15.25;;;;;;;;;;5015031;28;20292;-72
2023/12/18 09:01:46;;;;;;;27.15;14.38;;;;;;;;;;5013813;28;20441;-72
2023/12/18 09:04:11;;;;;;;29.90;14.60;;;;;;;;;;5014889;28;20048;-72
2023/12/18 09:06:37;;;;;;;27.17;14.60;;;;;;;;;;5014869;28;20613;-72
2023/12/18 09:09:02;;;;;;;26.70;14.25;;;;;;;;;;5014745;28;20347;-72
2023/12/18 09:11:29;;;;;;;26.73;13.90;;;;;;;;;;5014819;28;20018;-71
2023/12/18 09:13:55;;;;;;;24.50;13.98;;;;;;;;;;5015108;28;20088;-73
2023/12/18 09:16:21;;;;;;;31.15;14.13;;;;;;;;;;5014350;28;20494;-73
2023/12/18 09:18:46;;;;;;;29.38;14.90;;;;;;;;;;5014438;28;20076;-70
2023/12/18 09:21:11;;;;;;;28.70;13.98;;;;;;;;;;5014426;28;20041;-72
2023/12/18 09:23:36;;;;;;;27.15;13.45;;;;;;;;;;5014120;28;20467;-71
2023/12/18 09:26:01;;;;;;;25.27;13.30;;;;;;;;;;5014661;28;20132;-71
2023/12/18 09:28:27;;;;;;;26.75;13.70;;;;;;;;;;5014372;28;20781;-72
2023/12/18 09:30:52;;;;;;;23.20;12.55;;;;;;;;;;5014032;28;20026;-73
2023/12/18 09:33:17;;;;;;;24.20;13.20;;;;;;;;;;5014305;28;20107;-73
2023/12/18 09:35:43;;;;;;;31.20;13.48;;;;;;;;;;5013986;28;20133;-72
2023/12/18 09:38:08;;;;;;;26.30;13.57;;;;;;;;;;5014955;28;20021;-73
2023/12/18 09:40:33;;;;;;;21.70;13.30;;;;;;;;;;5013921;28;20041;-72
2023/12/18 09:43:00;;;;;;;29.35;14.15;;;;;;;;;;5013871;28;20026;-72
2023/12/18 09:45:26;;;;;;;24.52;13.63;;;;;;;;;;5014947;28;20478;-72
2023/12/18 09:47:54;;;;;;;32.38;12.32;;;;;;;;;;5013075;28;20092;-73
2023/12/18 09:50:20;;;;;;;25.75;13.00;;;;;;;;;;5014101;28;20018;-72
2023/12/18 09:52:52;;;;;;;29.85;12.88;;;;;;;;;;5012872;28;20113;-72
2023/12/18 09:55:18;;;;;;;30.83;13.43;;;;;;;;;;5013451;28;20343;-72
2023/12/18 09:57:44;;;;;;;23.30;12.25;;;;;;;;;;5014041;28;20132;-72
2023/12/18 10:00:12;;;;;;;21.95;12.18;;;;;;;;;;5013440;28;20029;-72
2023/12/18 10:02:38;;;;;;;28.10;12.30;;;;;;;;;;5013753;28;20053;-72
2023/12/18 10:05:03;;;;;;;21.80;11.00;;;;;;;;;;5014228;28;20018;-72
2023/12/18 10:07:29;;;;;;;28.15;13.30;;;;;;;;;;5013673;28;20022;-71
2023/12/18 10:09:54;;;;;;;30.23;12.63;;;;;;;;;;5014114;28;20108;-73
2023/12/18 10:12:19;;;;;;;24.57;12.73;;;;;;;;;;5013380;28;20339;-72
2023/12/18 10:14:44;;;;;;;25.37;11.63;;;;;;;;;;5013667;28;20447;-73
2023/12/18 10:17:09;;;;;;;23.17;11.43;;;;;;;;;;5013189;28;20289;-72
2023/12/18 10:19:36;;;;;;;30.92;13.13;;;;;;;;;;5013496;28;20269;-71
2023/12/18 10:22:01;;;;;;;24.02;12.43;;;;;;;;;;5012397;28;20077;-72
2023/12/18 10:24:26;;;;;;;27.50;13.20;;;;;;;;;;5013391;28;20029;-71
2023/12/18 10:26:51;;;;;;;22.30;12.52;;;;;;;;;;5013162;28;20056;-72
2023/12/18 10:29:17;;;;;;;23.67;12.05;;;;;;;;;;5012268;28;20053;-73
2023/12/18 10:31:43;;;;;;;23.05;12.23;;;;;;;;;;5013339;28;20296;-74
2023/12/18 10:34:09;;;;;;;25.13;12.13;;;;;;;;;;5013446;28;20355;-72
2023/12/18 10:36:34;;;;;;;24.42;12.63;;;;;;;;;;5012918;28;20108;-72
2023/12/18 10:39:00;;;;;;;19.20;11.23;;;;;;;;;;5013316;28;20018;-72
2023/12/18 10:41:27;;;;;;;30.40;11.80;;;;;;;;;;5014071;28;20049;-71
2023/12/18 10:43:54;;;;;;;24.48;12.23;;;;;;;;;;5012588;28;20423;-69
2023/12/18 10:46:21;;;;;;;27.60;12.52;;;;;;;;;;5013143;28;20045;-72
2023/12/18 10:48:47;;;;;;;28.05;12.48;;;;;;;;;;5013824;28;20128;-71
2023/12/18 10:51:13;;;;;;;30.60;12.50;;;;;;;;;;5014548;28;20022;-72
2023/12/18 10:53:39;;;;;;;26.00;11.63;;;;;;;;;;5015075;28;20030;-72
2023/12/18 10:56:05;;;;;;;26.40;11.70;;;;;;;;;;5015012;28;20040;-73
2023/12/18 10:58:30;;;;;;;24.00;11.77;;;;;;;;;;5015282;28;20029;-72
2023/12/18 11:00:56;;;;;;;20.17;11.82;;;;;;;;;;5015317;28;20022;-71
2023/12/18 11:03:26;;;;;;;22.48;12.02;;;;;;;;;;5014526;28;20032;-71
2023/12/18 11:05:53;;;;;;;24.58;11.70;;;;;;;;;;5017644;28;20057;-72
2023/12/18 11:08:18;;;;;;;22.60;12.30;;;;;;;;;;5018612;28;20074;-72
2023/12/18 11:10:44;;;;;;;30.30;12.68;;;;;;;;;;5017549;28;20061;-71
2023/12/18 11:13:23;;;;;;;31.38;13.32;;;;;;;;;;5017608;28;20018;-72
2023/12/18 11:15:48;;;;;;;24.13;12.88;;;;;;;;;;5017361;28;20026;-73
2023/12/18 11:18:16;;;;;;;26.73;12.63;;;;;;;;;;5017019;28;20026;-72
2023/12/18 11:20:42;;;;;;;24.65;13.10;;;;;;;;;;5017113;28;20283;-72
2023/12/18 11:23:09;;;;;;;27.42;13.70;;;;;;;;;;5016862;28;20422;-71
2023/12/18 11:25:35;;;;;;;23.55;12.60;;;;;;;;;;5017056;28;20022;-72
2023/12/18 11:28:04;;;;;;;28.27;12.40;;;;;;;;;;5016759;28;20450;-73
2023/12/18 11:30:30;;;;;;;32.10;13.27;;;;;;;;;;5017003;28;20028;-72
2023/12/18 11:33:03;;;;;;;22.50;13.07;;;;;;;;;;5017070;28;20077;-73
2023/12/18 11:35:30;;;;;;;30.98;13.23;;;;;;;;;;5016066;28;20046;-72
2023/12/18 11:38:14;;;;;;;27.23;12.20;;;;;;;;;;5016894;28;20037;-72
2023/12/18 11:40:48;;;;;;;29.50;13.63;;;;;;;;;;5016564;28;20553;-71
2023/12/18 11:43:32;;;;;;;39.85;13.85;;;;;;;;;;5017206;28;20036;-72
2023/12/18 11:45:58;;;;;;;24.30;13.20;;;;;;;;;;5016503;28;20458;-71
2023/12/18 11:48:23;;;;;;;32.47;14.32;;;;;;;;;;5016706;28;20017;-71
2023/12/18 11:50:50;;;;;;;37.28;14.63;;;;;;;;;;5016624;28;20101;-71
2023/12/18 11:53:30;;;;;;;26.92;13.40;;;;;;;;;;5015922;28;20339;-71
2023/12/18 11:55:55;;;;;;;25.65;13.68;;;;;;;;;;5016473;28;20022;-70
2023/12/18 11:58:24;;;;;;;29.13;13.90;;;;;;;;;;5016454;28;20026;-70
2023/12/18 12:00:49;;;;;;;26.30;13.52;;;;;;;;;;5015121;28;20268;-72
2023/12/18 12:03:14;;;;;;;31.88;13.57;;;;;;;;;;5016475;28;20014;-70
2023/12/18 12:05:40;;;;;;;33.25;12.80;;;;;;;;;;5016247;28;20386;-71
2023/12/18 12:08:05;;;;;;;29.92;12.60;;;;;;;;;;5016908;28;20029;-72
2023/12/18 12:10:38;;;;;;;31.42;13.88;;;;;;;;;;5016266;28;20022;-73
2023/12/18 12:13:04;;;;;;;28.40;13.30;;;;;;;;;;5016355;28;20022;-71
2023/12/18 12:15:30;;;;;;;23.73;12.57;;;;;;;;;;5015071;28;20030;-72
2023/12/18 12:18:05;;;;;;;25.73;12.55;;;;;;;;;;5016637;28;20022;-72
2023/12/18 12:20:31;;;;;;;28.23;13.05;;;;;;;;;;5016073;28;20489;-72
2023/12/18 12:22:56;;;;;;;28.35;13.23;;;;;;;;;;5016273;28;20030;-72
2023/12/18 12:25:22;;;;;;;20.33;11.32;;;;;;;;;;5015816;28;20072;-72
2023/12/18 12:27:47;;;;;;;26.97;12.50;;;;;;;;;;5016036;28;20030;-71
2023/12/18 12:30:12;;;;;;;28.90;13.20;;;;;;;;;;5016133;28;20260;-72
2023/12/18 12:32:38;;;;;;;28.90;12.27;;;;;;;;;;5015821;28;20054;-72
2023/12/18 12:35:04;;;;;;;28.60;11.95;;;;;;;;;;5014489;28;20030;-72
2023/12/18 12:37:29;;;;;;;31.10;12.57;;;;;;;;;;5015475;28;20053;-72
2023/12/18 12:40:05;;;;;;;31.70;12.80;;;;;;;;;;5015808;28;20018;-72
2023/12/18 12:42:30;;;;;;;25.92;12.38;;;;;;;;;;5015980;28;20022;-72
2023/12/18 12:44:56;;;;;;;23.00;11.95;;;;;;;;;;5016187;28;20037;-71
2023/12/18 12:47:21;;;;;;;33.35;12.80;;;;;;;;;;5015761;28;20022;-71
2023/12/18 12:49:48;;;;;;;22.27;12.10;;;;;;;;;;5015930;28;20021;-72
2023/12/18 12:52:14;;;;;;;24.00;11.82;;;;;;;;;;5016247;28;20119;-71
2023/12/18 12:54:39;;;;;;;28.90;12.18;;;;;;;;;;5015378;28;20458;-72
2023/12/18 12:57:04;;;;;;;20.13;12.30;;;;;;;;;;5015307;28;20128;-72
2023/12/18 12:59:29;;;;;;;24.30;11.23;;;;;;;;;;5015283;28;20467;-72
2023/12/18 13:01:55;;;;;;;26.70;12.65;;;;;;;;;;5015362;28;20109;-73
2023/12/18 13:04:20;;;;;;;26.05;12.38;;;;;;;;;;5014019;28;20032;-72
2023/12/18 13:06:45;;;;;;;24.17;11.97;;;;;;;;;;5015342;28;20096;-73
2023/12/18 13:09:11;;;;;;;21.00;11.13;;;;;;;;;;5014799;28;20256;-72
2023/12/18 13:11:38;;;;;;;30.52;12.27;;;;;;;;;;5014996;28;20037;-72
2023/12/18 13:14:03;;;;;;;22.13;12.20;;;;;;;;;;5013960;28;20105;-70
2023/12/18 13:16:28;;;;;;;24.35;10.80;;;;;;;;;;5014468;28;20105;-70
2023/12/18 13:18:53;;;;;;;28.60;12.45;;;;;;;;;;5014614;28;20029;-70
2023/12/18 13:21:19;;;;;;;27.00;11.63;;;;;;;;;;5014323;28;20466;-72
2023/12/18 13:23:44;;;;;;;23.10;11.80;;;;;;;;;;5014557;28;20260;-71
2023/12/18 13:26:09;;;;;;;23.50;11.93;;;;;;;;;;5014037;28;20508;-72
2023/12/18 13:28:35;;;;;;;22.95;10.95;;;;;;;;;;5013985;28;20407;-73
2023/12/18 13:31:00;;;;;;;26.63;11.93;;;;;;;;;;5014479;28;20113;-72
2023/12/18 13:33:26;;;;;;;35.95;13.95;;;;;;;;;;5014454;28;20336;-72
2023/12/18 13:35:51;;;;;;;35.75;12.93;;;;;;;;;;5014268;28;20185;-72
2023/12/18 13:38:16;;;;;;;27.60;12.35;;;;;;;;;;5014509;28;20105;-71
2023/12/18 13:40:41;;;;;;;26.05;12.85;;;;;;;;;;5012850;28;20103;-73
2023/12/18 13:43:07;;;;;;;27.45;12.68;;;;;;;;;;5014724;28;20097;-74
2023/12/18 13:45:32;;;;;;;26.43;13.43;;;;;;;;;;5014353;28;20050;-72
2023/12/18 13:47:57;;;;;;;23.83;13.30;;;;;;;;;;5013927;28;20682;-72
2023/12/18 13:50:22;;;;;;;28.73;13.70;;;;;;;;;;5013831;28;20080;-72
2023/12/18 13:52:48;;;;;;;23.13;14.30;;;;;;;;;;5014336;28;20022;-73
2023/12/18 13:55:13;;;;;;;26.17;13.27;;;;;;;;;;5014116;28;20121;-72
2023/12/18 13:57:39;;;;;;;31.58;13.73;;;;;;;;;;5013867;28;20032;-74
2023/12/18 14:00:04;;;;;;;27.77;13.45;;;;;;;;;;5014023;28;20112;-72
2023/12/18 14:02:32;;;;;;;28.35;13.73;;;;;;;;;;5013890;28;20552;-73
2023/12/18 14:04:57;;;;;;;27.60;14.05;;;;;;;;;;5013707;28;20009;-72
2023/12/18 14:07:23;;;;;;;28.98;14.65;;;;;;;;;;5013947;28;20022;-73
2023/12/18 14:09:48;;;;;;;27.20;13.90;;;;;;;;;;5013552;28;20037;-73